Shineimaru No.18 — JD3667 — position and weather

sailwx.info

Track history (hours):
 
Tides and Currents Weather Stations Pressure Air Temp Water Temp Dewpoint Dewpoint Depression Visibility Wind Speed Wind Dir Waves Ship Positions

Shineimaru No.18

Last reported at 2018-Feb-20 08:30 UTC. Time now 2018-Feb-24 03:43 UTC.
Position N 35°13' E 139°46'.

Length 69 m.

Type: Cargo ship. MMSI: 431005328.

Date/timePositionNaut miles runAvg speedWind from/ knotsBaromVisibWave heightAir tempDewpointWater temp
2018-Feb-20 08:30N 35°13' E 139°46'510.7
2018-Feb-20 08:00N 35°18' E 139°44'510.5
2018-Feb-20 07:30N 35°24' E 139°42'510.9
2018-Feb-20 07:00N 35°27' E 139°47'5 0.4
2018-Feb-19 19:37N 35°30' E 139°53'111.1
2018-Feb-19 19:30N 35°29' E 139°52'511.0
2018-Feb-19 19:00N 35°25' E 139°47'611.3
2018-Feb-19 18:30N 35°20' E 139°44'810.6
2018-Feb-19 17:45N 35°12' E 139°47'240 9.0
2018-Feb-18 15:06N 34°09' E 135°05'111.7
2018-Feb-18 15:00N 34°10' E 135°05'5 9.7
2018-Feb-18 14:30N 34°13' E 135°09'0 0.1
2018-Feb-18 14:00N 34°13' E 135°09'0 0.0
2018-Feb-18 13:30N 34°13' E 135°09'0 0.0
2018-Feb-18 13:00N 34°13' E 135°09'0 0.0
2018-Feb-18 12:30N 34°13' E 135°09'0 0.0
2018-Feb-18 12:00N 34°13' E 135°09'0 0.0
2018-Feb-18 11:30N 34°13' E 135°09'0 0.0
2018-Feb-18 11:00N 34°13' E 135°09'0 0.0
2018-Feb-18 10:30N 34°13' E 135°09'0 0.0
2018-Feb-18 10:00N 34°13' E 135°09'0 0.0
2018-Feb-18 09:30N 34°13' E 135°09'0 0.0
2018-Feb-18 09:00N 34°13' E 135°09'0 0.0
2018-Feb-18 08:30N 34°13' E 135°09'0 0.0
2018-Feb-18 08:00N 34°13' E 135°09'0 0.0
2018-Feb-18 07:30N 34°13' E 135°09'3 5.3
2018-Feb-18 06:58N 34°14' E 135°06'2 4.0
2018-Feb-18 06:30N 34°14' E 135°08'0 0.0
2018-Feb-18 06:00N 34°14' E 135°08'0 0.0
2018-Feb-18 05:30N 34°14' E 135°08'0 0.0
2018-Feb-18 05:00N 34°14' E 135°08'0 0.0
2018-Feb-18 04:30N 34°14' E 135°08'0 0.0
2018-Feb-18 04:00N 34°14' E 135°08'1 1.5
2018-Feb-18 03:26N 34°13' E 135°08'0 1.1
2018-Feb-18 03:00N 34°13' E 135°09'0 0.0
2018-Feb-18 02:27N 34°13' E 135°09'0 0.0
2018-Feb-18 01:57N 34°13' E 135°09'0 0.0
2018-Feb-18 01:30N 34°13' E 135°09'0 0.0
2018-Feb-18 01:00N 34°13' E 135°09'0 0.0
2018-Feb-18 00:27N 34°13' E 135°09'0 0.0
2018-Feb-18 00:00N 34°13' E 135°09'0 0.0
2018-Feb-17 23:30N 34°13' E 135°09'0 0.0
2018-Feb-17 23:00N 34°13' E 135°09'0 0.0
2018-Feb-17 22:29N 34°13' E 135°09'0 0.0
2018-Feb-17 21:59N 34°13' E 135°09'0 0.0
2018-Feb-17 21:29N 34°13' E 135°09'0 0.0
2018-Feb-17 20:59N 34°13' E 135°09'0 0.0
2018-Feb-17 20:29N 34°13' E 135°09'0 0.0
2018-Feb-17 19:59N 34°13' E 135°09'0 0.0
2018-Feb-17 19:29N 34°13' E 135°09'0 0.1
2018-Feb-17 19:00N 34°13' E 135°09'5 9.6
2018-Feb-17 18:30N 34°10' E 135°05'611.8
2018-Feb-17 18:00N 34°05' E 135°00'611.9
2018-Feb-17 17:29N 34°00' E 134°56'  
2018-Feb-15 07:44N 35°08' E 139°42'411.1
2018-Feb-15 07:25N 35°11' E 139°45'510.3
2018-Feb-15 06:57N 35°16' E 139°46'510.8
2018-Feb-15 06:30N 35°20' E 139°42'510.5
2018-Feb-15 05:58N 35°25' E 139°43'511.3
2018-Feb-15 05:29N 35°28' E 139°49'3 0.1
2018-Feb-13 16:55N 35°30' E 139°53'511.1
2018-Feb-13 16:30N 35°26' E 139°49'611.1
2018-Feb-13 16:00N 35°22' E 139°45'710.5
2018-Feb-13 15:17N 35°14' E 139°47'1310.4
2018-Feb-13 14:00N 35°03' E 139°38'234 9.6
2018-Feb-12 13:35N 34°04' E 135°03'411.7
2018-Feb-12 13:16N 34°07' E 135°04'311.7
2018-Feb-12 13:00N 34°10' E 135°04'4 8.9
2018-Feb-12 12:30N 34°14' E 135°07'1 1.3
2018-Feb-12 12:00N 34°14' E 135°08'0 0.0
2018-Feb-12 11:21N 34°14' E 135°08'0 0.0
2018-Feb-12 11:00N 34°14' E 135°08'0 0.0
2018-Feb-12 10:28N 34°14' E 135°08'0 0.0
2018-Feb-12 09:55N 34°14' E 135°08'0 0.0
2018-Feb-12 09:25N 34°14' E 135°08'0 0.0
2018-Feb-12 08:58N 34°14' E 135°08'0 0.0
2018-Feb-12 08:30N 34°14' E 135°08'1 1.9
2018-Feb-12 07:58N 34°13' E 135°09'0 0.1
2018-Feb-12 07:30N 34°13' E 135°09'0 0.0
2018-Feb-12 07:00N 34°13' E 135°09'0 0.0
2018-Feb-12 06:30N 34°13' E 135°09'0 0.0
2018-Feb-12 05:57N 34°13' E 135°09'0 0.0
2018-Feb-12 05:27N 34°13' E 135°09'0 0.0
2018-Feb-12 05:00N 34°13' E 135°09'0 0.0
2018-Feb-12 04:27N 34°13' E 135°09'0 0.0
2018-Feb-12 03:57N 34°13' E 135°09'0 0.0
2018-Feb-12 03:30N 34°13' E 135°09'0 0.0
2018-Feb-12 03:00N 34°13' E 135°09'0 0.0
2018-Feb-12 02:27N 34°13' E 135°09'0 0.0
2018-Feb-12 02:00N 34°13' E 135°09'0 0.0
2018-Feb-12 01:30N 34°13' E 135°09'0 0.0
2018-Feb-12 01:00N 34°13' E 135°09'0 0.0
2018-Feb-12 00:30N 34°13' E 135°09'0 0.0
2018-Feb-11 23:57N 34°13' E 135°09'0 0.0
2018-Feb-11 23:30N 34°13' E 135°09'0 0.0
2018-Feb-11 23:00N 34°13' E 135°09'0 0.0
2018-Feb-11 22:30N 34°13' E 135°09'0 0.0
2018-Feb-11 22:00N 34°13' E 135°09'0 0.0
2018-Feb-11 21:30N 34°13' E 135°09'0 0.0
2018-Feb-11 21:00N 34°13' E 135°09'0 0.0
2018-Feb-11 20:30N 34°13' E 135°09'0 0.0
2018-Feb-11 20:00N 34°13' E 135°09'0 0.0
2018-Feb-11 19:30N 34°13' E 135°09'0 0.0
2018-Feb-11 19:00N 34°13' E 135°09'0 0.0
2018-Feb-11 18:30N 34°13' E 135°09'0 0.0
2018-Feb-11 18:00N 34°13' E 135°09'0 0.0
2018-Feb-11 17:27N 34°13' E 135°09'0 0.0
2018-Feb-11 17:00N 34°13' E 135°09'0 0.0
2018-Feb-11 16:27N 34°13' E 135°09'0 0.0
2018-Feb-11 16:00N 34°13' E 135°09'0 0.0
2018-Feb-11 15:30N 34°13' E 135°09'0 0.0
2018-Feb-11 15:00N 34°13' E 135°09'0 0.0
2018-Feb-11 14:30N 34°13' E 135°09'0 0.0
2018-Feb-11 14:00N 34°13' E 135°09'0 0.0
2018-Feb-11 13:30N 34°13' E 135°09'0 0.0
2018-Feb-11 13:00N 34°13' E 135°09'0 0.0
2018-Feb-11 12:30N 34°13' E 135°09'0 0.0
2018-Feb-11 12:00N 34°13' E 135°09'0 0.0
2018-Feb-11 11:30N 34°13' E 135°09'0 0.0
2018-Feb-11 11:00N 34°13' E 135°09'0 0.0
2018-Feb-11 10:28N 34°13' E 135°09'0 0.0
2018-Feb-11 09:58N 34°13' E 135°09'0 0.0
2018-Feb-11 09:28N 34°13' E 135°09'0 0.0
2018-Feb-11 09:00N 34°13' E 135°09'5 8.5
2018-Feb-11 08:28N 34°09' E 135°06'  
Track history (hours):
 
Tides and Currents Weather Stations Pressure Air Temp Water Temp Dewpoint Dewpoint Depression Visibility Wind Speed Wind Dir Waves Ship Positions

Shineimaru No.18

Last reported at 2018-Feb-20 08:30 UTC. Time now 2018-Feb-24 03:43 UTC.
Position N 35°13' E 139°46'.

Length 69 m.

Type: Cargo ship. MMSI: 431005328.

Date/timePositionNaut miles runAvg speedWind from/ knotsBaromVisibWave heightAir tempDewpointWater temp
2018-Feb-20 08:30N 35°13' E 139°46'510.7
2018-Feb-20 08:00N 35°18' E 139°44'510.5
2018-Feb-20 07:30N 35°24' E 139°42'510.9
2018-Feb-20 07:00N 35°27' E 139°47'5 0.4
2018-Feb-19 19:37N 35°30' E 139°53'111.1
2018-Feb-19 19:30N 35°29' E 139°52'511.0
2018-Feb-19 19:00N 35°25' E 139°47'611.3
2018-Feb-19 18:30N 35°20' E 139°44'810.6
2018-Feb-19 17:45N 35°12' E 139°47'240 9.0
2018-Feb-18 15:06N 34°09' E 135°05'111.7
2018-Feb-18 15:00N 34°10' E 135°05'5 9.7
2018-Feb-18 14:30N 34°13' E 135°09'0 0.1
2018-Feb-18 14:00N 34°13' E 135°09'0 0.0
2018-Feb-18 13:30N 34°13' E 135°09'0 0.0
2018-Feb-18 13:00N 34°13' E 135°09'0 0.0
2018-Feb-18 12:30N 34°13' E 135°09'0 0.0
2018-Feb-18 12:00N 34°13' E 135°09'0 0.0
2018-Feb-18 11:30N 34°13' E 135°09'0 0.0
2018-Feb-18 11:00N 34°13' E 135°09'0 0.0
2018-Feb-18 10:30N 34°13' E 135°09'0 0.0
2018-Feb-18 10:00N 34°13' E 135°09'0 0.0
2018-Feb-18 09:30N 34°13' E 135°09'0 0.0
2018-Feb-18 09:00N 34°13' E 135°09'0 0.0
2018-Feb-18 08:30N 34°13' E 135°09'0 0.0
2018-Feb-18 08:00N 34°13' E 135°09'0 0.0
2018-Feb-18 07:30N 34°13' E 135°09'3 5.3
2018-Feb-18 06:58N 34°14' E 135°06'2 4.0
2018-Feb-18 06:30N 34°14' E 135°08'0 0.0
2018-Feb-18 06:00N 34°14' E 135°08'0 0.0
2018-Feb-18 05:30N 34°14' E 135°08'0 0.0
2018-Feb-18 05:00N 34°14' E 135°08'0 0.0
2018-Feb-18 04:30N 34°14' E 135°08'0 0.0
2018-Feb-18 04:00N 34°14' E 135°08'1 1.5
2018-Feb-18 03:26N 34°13' E 135°08'0 1.1
2018-Feb-18 03:00N 34°13' E 135°09'0 0.0
2018-Feb-18 02:27N 34°13' E 135°09'0 0.0
2018-Feb-18 01:57N 34°13' E 135°09'0 0.0
2018-Feb-18 01:30N 34°13' E 135°09'0 0.0
2018-Feb-18 01:00N 34°13' E 135°09'0 0.0
2018-Feb-18 00:27N 34°13' E 135°09'0 0.0
2018-Feb-18 00:00N 34°13' E 135°09'0 0.0
2018-Feb-17 23:30N 34°13' E 135°09'0 0.0
2018-Feb-17 23:00N 34°13' E 135°09'0 0.0
2018-Feb-17 22:29N 34°13' E 135°09'0 0.0
2018-Feb-17 21:59N 34°13' E 135°09'0 0.0
2018-Feb-17 21:29N 34°13' E 135°09'0 0.0
2018-Feb-17 20:59N 34°13' E 135°09'0 0.0
2018-Feb-17 20:29N 34°13' E 135°09'0 0.0
2018-Feb-17 19:59N 34°13' E 135°09'0 0.0
2018-Feb-17 19:29N 34°13' E 135°09'0 0.1
2018-Feb-17 19:00N 34°13' E 135°09'5 9.6
2018-Feb-17 18:30N 34°10' E 135°05'611.8
2018-Feb-17 18:00N 34°05' E 135°00'611.9
2018-Feb-17 17:29N 34°00' E 134°56'  
2018-Feb-15 07:44N 35°08' E 139°42'411.1
2018-Feb-15 07:25N 35°11' E 139°45'510.3
2018-Feb-15 06:57N 35°16' E 139°46'510.8
2018-Feb-15 06:30N 35°20' E 139°42'510.5
2018-Feb-15 05:58N 35°25' E 139°43'511.3
2018-Feb-15 05:29N 35°28' E 139°49'3 0.1
2018-Feb-13 16:55N 35°30' E 139°53'511.1
2018-Feb-13 16:30N 35°26' E 139°49'611.1
2018-Feb-13 16:00N 35°22' E 139°45'710.5
2018-Feb-13 15:17N 35°14' E 139°47'1310.4
2018-Feb-13 14:00N 35°03' E 139°38'234 9.6
2018-Feb-12 13:35N 34°04' E 135°03'411.7
2018-Feb-12 13:16N 34°07' E 135°04'311.7
2018-Feb-12 13:00N 34°10' E 135°04'4 8.9
2018-Feb-12 12:30N 34°14' E 135°07'1 1.3
2018-Feb-12 12:00N 34°14' E 135°08'0 0.0
2018-Feb-12 11:21N 34°14' E 135°08'0 0.0
2018-Feb-12 11:00N 34°14' E 135°08'0 0.0
2018-Feb-12 10:28N 34°14' E 135°08'0 0.0
2018-Feb-12 09:55N 34°14' E 135°08'0 0.0
2018-Feb-12 09:25N 34°14' E 135°08'0 0.0
2018-Feb-12 08:58N 34°14' E 135°08'0 0.0
2018-Feb-12 08:30N 34°14' E 135°08'1 1.9
2018-Feb-12 07:58N 34°13' E 135°09'0 0.1
2018-Feb-12 07:30N 34°13' E 135°09'0 0.0
2018-Feb-12 07:00N 34°13' E 135°09'0 0.0
2018-Feb-12 06:30N 34°13' E 135°09'0 0.0
2018-Feb-12 05:57N 34°13' E 135°09'0 0.0
2018-Feb-12 05:27N 34°13' E 135°09'0 0.0
2018-Feb-12 05:00N 34°13' E 135°09'0 0.0
2018-Feb-12 04:27N 34°13' E 135°09'0 0.0
2018-Feb-12 03:57N 34°13' E 135°09'0 0.0
2018-Feb-12 03:30N 34°13' E 135°09'0 0.0
2018-Feb-12 03:00N 34°13' E 135°09'0 0.0
2018-Feb-12 02:27N 34°13' E 135°09'0 0.0
2018-Feb-12 02:00N 34°13' E 135°09'0 0.0
2018-Feb-12 01:30N 34°13' E 135°09'0 0.0
2018-Feb-12 01:00N 34°13' E 135°09'0 0.0
2018-Feb-12 00:30N 34°13' E 135°09'0 0.0
2018-Feb-11 23:57N 34°13' E 135°09'0 0.0
2018-Feb-11 23:30N 34°13' E 135°09'0 0.0
2018-Feb-11 23:00N 34°13' E 135°09'0 0.0
2018-Feb-11 22:30N 34°13' E 135°09'0 0.0
2018-Feb-11 22:00N 34°13' E 135°09'0 0.0
2018-Feb-11 21:30N 34°13' E 135°09'0 0.0
2018-Feb-11 21:00N 34°13' E 135°09'0 0.0
2018-Feb-11 20:30N 34°13' E 135°09'0 0.0
2018-Feb-11 20:00N 34°13' E 135°09'0 0.0
2018-Feb-11 19:30N 34°13' E 135°09'0 0.0
2018-Feb-11 19:00N 34°13' E 135°09'0 0.0
2018-Feb-11 18:30N 34°13' E 135°09'0 0.0
2018-Feb-11 18:00N 34°13' E 135°09'0 0.0
2018-Feb-11 17:27N 34°13' E 135°09'0 0.0
2018-Feb-11 17:00N 34°13' E 135°09'0 0.0
2018-Feb-11 16:27N 34°13' E 135°09'0 0.0
2018-Feb-11 16:00N 34°13' E 135°09'0 0.0
2018-Feb-11 15:30N 34°13' E 135°09'0 0.0
2018-Feb-11 15:00N 34°13' E 135°09'0 0.0
2018-Feb-11 14:30N 34°13' E 135°09'0 0.0
2018-Feb-11 14:00N 34°13' E 135°09'0 0.0
2018-Feb-11 13:30N 34°13' E 135°09'0 0.0
2018-Feb-11 13:00N 34°13' E 135°09'0 0.0
2018-Feb-11 12:30N 34°13' E 135°09'0 0.0
2018-Feb-11 12:00N 34°13' E 135°09'0 0.0
2018-Feb-11 11:30N 34°13' E 135°09'0 0.0
2018-Feb-11 11:00N 34°13' E 135°09'0 0.0
2018-Feb-11 10:28N 34°13' E 135°09'0 0.0
2018-Feb-11 09:58N 34°13' E 135°09'0 0.0
2018-Feb-11 09:28N 34°13' E 135°09'0 0.0
2018-Feb-11 09:00N 34°13' E 135°09'5 8.5
2018-Feb-11 08:28N 34°09' E 135°06'  

Dump ship's entire track history